Time;durP1;ratioP1;P1;durP2;ratioP2;P2;SDS_P1;SDS_P2;PMS_P1;PMS_P2;Temp;Humidity;BMP_temperature;BMP_pressure;BME280_temperature;BME280_humidity;BME280_pressure;Samples;Min_cycle;Max_cycle;Signal;HPM_P1;HPM_P2
2022/10/15 00:01:14;;;;;;;8.73;5.28;;;;;;;13.62;59.87;95416.22;5079636;28;20067;-78
2022/10/15 00:03:41;;;;;;;11.95;5.45;;;;;;;14.14;59.90;95507.78;5061717;28;20083;-78
2022/10/15 00:06:09;;;;;;;9.05;5.22;;;;;;;14.09;60.13;95508.66;5079933;28;20036;-79
2022/10/15 00:08:35;;;;;;;8.95;4.55;;;;;;;13.81;59.70;95449.00;5061350;28;20035;-79
2022/10/15 00:11:22;;;;;;;9.90;5.13;;;;;;;13.71;59.51;95427.03;5080057;28;20036;-78
2022/10/15 00:13:48;;;;;;;8.25;4.88;;;;;;;13.73;60.39;95435.56;5079772;28;20048;-79
2022/10/15 00:16:16;;;;;;;6.13;4.00;;;;;;;13.56;60.53;95417.38;5079592;28;20405;-79
2022/10/15 00:18:42;;;;;;;10.95;4.70;;;;;;;13.83;60.37;95451.41;5079113;28;20036;-78
2022/10/15 00:21:10;;;;;;;7.13;4.07;;;;;;;13.40;59.83;95368.03;5079893;28;20069;-79
2022/10/15 00:23:35;;;;;;;12.13;4.57;;;;;;;13.82;60.06;95441.81;5079719;28;20136;-79
2022/10/15 00:26:07;;;;;;;11.02;5.13;;;;;;;13.76;60.15;95429.63;5079366;28;20470;-78
2022/10/15 00:28:33;;;;;;;10.35;5.30;;;;;;;13.95;60.68;95464.31;5073515;28;20037;-79
2022/10/15 00:31:01;;;;;;;7.15;4.75;;;;;;;14.14;60.47;95486.44;5078405;28;20128;-79
2022/10/15 00:33:26;;;;;;;13.18;5.47;;;;;;;13.86;60.88;95456.16;5061406;28;20055;-79
2022/10/15 00:36:03;;;;;;;13.80;5.88;;;;;;;13.99;60.97;95459.97;5072969;28;20049;-79
2022/10/15 00:38:29;;;;;;;9.07;5.50;;;;;;;14.08;60.63;95463.59;5066406;28;21049;-78
2022/10/15 00:40:54;;;;;;;6.75;4.53;;;;;;;14.13;60.70;95474.97;5076393;28;20044;-78
2022/10/15 00:43:53;;;;;;;7.65;4.72;;;;;;;13.77;61.13;95425.91;5079929;28;20528;-79
2022/10/15 00:46:31;;;;;;;7.30;4.20;;;;;;;13.78;61.26;95424.81;5032982;28;20139;-78
2022/10/15 00:49:01;;;;;;;7.20;4.22;;;;;;;13.71;61.67;95405.72;5059516;28;20743;-78
2022/10/15 00:51:34;;;;;;;9.45;4.75;;;;;;;13.48;61.87;95388.69;5078941;28;20472;-78
2022/10/15 00:53:59;;;;;;;10.60;4.38;;;;;;;13.94;62.23;95463.53;5079009;28;20420;-79
2022/10/15 00:56:26;;;;;;;8.80;4.47;;;;;;;13.87;62.88;95461.22;5059937;28;20185;-78
2022/10/15 00:58:53;;;;;;;14.10;4.97;;;;;;;13.15;62.85;95355.81;5060320;28;20149;-78
2022/10/15 01:01:19;;;;;;;7.03;4.05;;;;;;;13.28;62.76;95364.97;5060241;28;20043;-79
2022/10/15 01:03:46;;;;;;;10.68;4.15;;;;;;;13.42;62.69;95379.19;5078503;28;20047;-78
2022/10/15 01:06:12;;;;;;;8.15;4.30;;;;;;;12.97;62.71;95303.31;5060506;28;20056;-79
2022/10/15 01:08:37;;;;;;;8.18;4.30;;;;;;;13.93;62.19;95439.81;5077040;28;20071;-79
2022/10/15 01:11:05;;;;;;;14.07;4.55;;;;;;;14.01;62.35;95463.16;5078341;28;20048;-79
2022/10/15 01:14:19;;;;;;;9.77;4.90;;;;;;;13.77;62.62;95447.22;5078775;28;20043;-78
2022/10/15 01:16:49;;;;;;;12.50;4.53;;;;;;;13.99;62.75;95466.13;5014724;28;20181;-78
2022/10/15 01:19:30;;;;;;;9.38;4.97;;;;;;;13.98;63.00;95469.06;5014213;28;20037;-79
2022/10/15 01:22:27;;;;;;;10.73;4.93;;;;;;;13.98;62.82;95469.84;5056414;28;20064;-79
2022/10/15 01:25:13;;;;;;;11.02;4.57;;;;;;;14.01;63.15;95468.50;5066207;28;20823;-80
2022/10/15 01:27:44;;;;;;;10.15;5.10;;;;;;;13.97;63.16;95468.25;5059290;28;20036;-79
2022/10/15 01:30:13;;;;;;;9.80;5.03;;;;;;;13.93;63.55;95461.13;5059968;28;20125;-79
2022/10/15 01:32:53;;;;;;;8.98;4.95;;;;;;;13.59;63.37;95408.78;5077877;28;20059;-79
2022/10/15 01:35:45;;;;;;;8.82;4.90;;;;;;;13.89;63.56;95464.38;5078254;28;20036;-79
2022/10/15 01:38:23;;;;;;;;;;;;;;;13.95;63.28;95469.66;5076611;28;20040;-79
2022/10/15 01:40:58;;;;;;;15.80;5.07;;;;;;;13.31;63.36;95372.41;5078154;28;19927;-79
2022/10/15 01:43:50;;;;;;;16.63;5.80;;;;;;;13.99;63.41;95466.13;5059783;28;20036;-77
2022/10/15 01:46:45;;;;;;;10.73;5.40;;;;;;;13.94;63.47;95447.53;5040085;28;20055;-78
2022/10/15 01:49:14;;;;;;;10.45;4.90;;;;;;;13.59;63.08;95400.00;5058992;28;20133;-77
2022/10/15 01:51:42;;;;;;;9.20;4.72;;;;;;;13.73;63.72;95446.22;5078647;28;20044;-77
2022/10/15 01:54:13;;;;;;;12.23;5.50;;;;;;;13.60;63.73;95417.59;5079423;28;20032;-77
2022/10/15 01:56:39;;;;;;;8.07;4.50;;;;;;;13.40;64.22;95392.78;5079008;28;20126;-76
2022/10/15 01:59:07;;;;;;;8.68;4.47;;;;;;;13.83;64.23;95462.06;5079226;28;20290;-77
2022/10/15 02:01:33;;;;;;;10.45;4.78;;;;;;;13.75;64.39;95463.50;5077968;28;20063;-77
2022/10/15 02:03:58;;;;;;;8.45;4.65;;;;;;;13.50;64.65;95403.31;5078647;28;20043;-77
2022/10/15 02:06:35;;;;;;;12.00;4.82;;;;;;;13.86;63.96;95454.28;5078534;28;20042;-76
2022/10/15 02:09:29;;;;;;;13.63;4.70;;;;;;;13.76;64.25;95443.75;5078520;28;20051;-76
2022/10/15 02:11:54;;;;;;;10.82;4.45;;;;;;;13.88;64.56;95456.69;5078580;28;20044;-76
2022/10/15 02:14:30;;;;;;;9.70;4.28;;;;;;;13.81;64.26;95459.69;5078211;28;20036;-76
2022/10/15 02:17:09;;;;;;;9.55;4.63;;;;;;;13.71;64.72;95465.16;5060246;28;20071;-76
2022/10/15 02:19:47;;;;;;;10.65;5.25;;;;;;;13.79;64.68;95456.53;5058492;28;20048;-77
2022/10/15 02:22:38;;;;;;;11.13;4.80;;;;;;;13.56;64.27;95430.69;5078253;28;20143;-77
2022/10/15 02:25:08;;;;;;;8.68;4.85;;;;;;;13.84;64.16;95461.78;5078041;28;20494;-77
2022/10/15 02:27:36;;;;;;;6.38;4.38;;;;;;;13.65;64.52;95433.53;5059724;28;20050;-76
2022/10/15 02:30:06;;;;;;;12.13;4.70;;;;;;;13.83;64.75;95462.84;5076888;28;20067;-76
2022/10/15 02:32:31;;;;;;;13.35;4.80;;;;;;;13.31;64.37;95394.50;5078101;28;20044;-77
2022/10/15 02:34:58;;;;;;;10.00;4.45;;;;;;;13.58;64.50;95433.09;5046051;28;20044;-76
2022/10/15 02:37:26;;;;;;;9.95;5.30;;;;;;;13.74;64.76;95451.25;5064780;28;20834;-76
2022/10/15 02:39:52;;;;;;;7.63;4.70;;;;;;;13.28;65.00;95397.72;5049643;28;20043;-76
2022/10/15 02:42:18;;;;;;;13.25;4.72;;;;;;;13.57;65.18;95434.16;5078251;28;20055;-77
2022/10/15 02:44:44;;;;;;;9.18;5.07;;;;;;;13.52;65.21;95435.00;5076094;28;20085;-76
2022/10/15 02:47:10;;;;;;;10.77;5.00;;;;;;;13.36;65.34;95405.09;5066745;28;20037;-76
2022/10/15 02:49:35;;;;;;;9.27;5.00;;;;;;;13.75;65.14;95462.69;5077775;28;20449;-76
2022/10/15 02:52:01;;;;;;;8.98;5.35;;;;;;;13.24;65.21;95398.59;5075813;28;20051;-76
2022/10/15 02:54:26;;;;;;;8.55;4.80;;;;;;;13.38;65.16;95410.13;5066090;28;20046;-76
2022/10/15 02:56:52;;;;;;;9.65;4.63;;;;;;;13.78;65.11;95465.59;5078073;28;20045;-77
2022/10/15 02:59:18;;;;;;;10.30;5.18;;;;;;;13.42;65.04;95409.28;5066357;28;20036;-76
2022/10/15 03:01:44;;;;;;;8.80;4.85;;;;;;;13.56;65.03;95432.56;5063245;28;20124;-76
2022/10/15 03:04:10;;;;;;;9.40;5.68;;;;;;;13.63;65.01;95441.81;5045189;28;20040;-76
2022/10/15 03:06:35;;;;;;;8.95;4.80;;;;;;;13.35;64.84;95394.75;5078387;28;20035;-76
2022/10/15 03:09:01;;;;;;;6.82;4.55;;;;;;;13.80;64.96;95473.31;5077997;28;20035;-76
2022/10/15 03:11:26;;;;;;;11.57;4.82;;;;;;;13.46;65.21;95433.47;5077981;28;20847;-76
2022/10/15 03:13:52;;;;;;;11.68;5.00;;;;;;;13.29;65.49;95401.19;5077462;28;20597;-76
2022/10/15 03:16:17;;;;;;;12.98;5.10;;;;;;;13.30;65.08;95398.25;5077802;28;20051;-76
2022/10/15 03:18:42;;;;;;;11.15;5.07;;;;;;;13.69;65.42;95451.31;5057509;28;20051;-76
2022/10/15 03:21:08;;;;;;;9.77;4.75;;;;;;;13.31;65.25;95386.50;5076703;28;20593;-76
2022/10/15 03:23:33;;;;;;;10.15;4.88;;;;;;;13.24;65.12;95391.38;5058895;28;20035;-76
2022/10/15 03:25:59;;;;;;;8.02;4.72;;;;;;;13.17;65.00;95380.28;5075291;28;20089;-76
2022/10/15 03:28:24;;;;;;;10.60;4.57;;;;;;;13.11;65.45;95387.53;5077436;28;20066;-76
2022/10/15 03:30:50;;;;;;;11.43;5.00;;;;;;;13.32;65.78;95427.25;5059144;28;20093;-76
2022/10/15 03:33:15;;;;;;;13.50;5.50;;;;;;;12.88;65.93;95360.91;5062280;28;20044;-76
2022/10/15 03:35:41;;;;;;;9.00;5.55;;;;;;;13.19;65.73;95401.31;5078831;28;20136;-77
2022/10/15 03:38:07;;;;;;;9.05;5.45;;;;;;;13.56;65.30;95452.03;5073542;28;20063;-76
2022/10/15 03:40:33;;;;;;;12.10;5.57;;;;;;;13.36;65.89;95428.25;5075850;28;20040;-77
2022/10/15 03:42:58;;;;;;;13.43;5.65;;;;;;;13.13;65.52;95398.69;5076992;28;20040;-76
2022/10/15 03:45:24;;;;;;;8.05;5.60;;;;;;;12.99;65.29;95375.66;5072042;28;20601;-77
2022/10/15 03:47:50;;;;;;;11.75;5.40;;;;;;;13.57;65.24;95471.47;5059618;28;20037;-76
2022/10/15 03:50:16;;;;;;;12.13;4.78;;;;;;;13.63;65.08;95476.44;5066434;28;20673;-77
2022/10/15 03:52:41;;;;;;;8.85;5.28;;;;;;;13.40;65.48;95437.28;5080245;28;20117;-76
2022/10/15 03:55:08;;;;;;;16.88;5.68;;;;;;;13.05;65.75;95398.50;5079424;28;20417;-76
2022/10/15 03:57:34;;;;;;;10.57;5.55;;;;;;;13.28;66.25;95447.53;5081019;28;20032;-76
2022/10/15 04:00:00;;;;;;;14.30;6.18;;;;;;;13.10;65.72;95398.44;5080498;28;20122;-76
2022/10/15 04:02:25;;;;;;;11.40;5.55;;;;;;;13.14;65.62;95410.94;5079062;28;20605;-77
2022/10/15 04:04:52;;;;;;;10.55;6.00;;;;;;;13.13;65.21;95405.88;5080482;28;20040;-76
2022/10/15 04:07:18;;;;;;;10.65;5.70;;;;;;;13.04;65.36;95386.28;5080914;28;20048;-76
2022/10/15 04:09:44;;;;;;;15.57;5.45;;;;;;;12.93;65.56;95390.91;5060787;28;20438;-77
2022/10/15 04:12:10;;;;;;;11.35;5.75;;;;;;;13.58;65.94;95487.16;5069175;28;20055;-76
2022/10/15 04:14:35;;;;;;;13.07;5.95;;;;;;;13.54;65.74;95488.81;5059752;28;20044;-76
2022/10/15 04:17:01;;;;;;;15.60;6.88;;;;;;;13.57;65.63;95490.91;5067251;28;20041;-76
2022/10/15 04:19:26;;;;;;;9.80;5.47;;;;;;;13.52;65.92;95483.75;5041757;28;20122;-76
2022/10/15 04:21:52;;;;;;;11.95;6.15;;;;;;;13.30;65.47;95451.50;5060085;28;20056;-76
2022/10/15 04:24:17;;;;;;;8.07;5.78;;;;;;;12.95;65.67;95396.75;5061787;28;20244;-76
2022/10/15 04:26:43;;;;;;;9.80;6.15;;;;;;;13.43;65.35;95453.47;5076180;28;20147;-77
2022/10/15 04:29:08;;;;;;;11.05;6.82;;;;;;;13.09;65.55;95413.63;5078482;28;20051;-77
2022/10/15 04:31:34;;;;;;;9.85;5.78;;;;;;;12.94;65.70;95392.50;5061784;28;20067;-76
2022/10/15 04:33:59;;;;;;;14.68;6.82;;;;;;;13.46;65.95;95481.44;5061459;28;20689;-76
2022/10/15 04:36:24;;;;;;;11.85;6.57;;;;;;;13.39;65.95;95483.66;5079212;28;20032;-76
2022/10/15 04:38:51;;;;;;;9.63;6.28;;;;;;;13.09;65.73;95447.44;5069693;28;20098;-76
2022/10/15 04:41:17;;;;;;;11.88;6.97;;;;;;;12.74;65.91;95390.81;5079027;28;20059;-76
2022/10/15 04:43:42;;;;;;;15.45;7.18;;;;;;;13.34;65.96;95497.81;5077414;28;20044;-77
2022/10/15 04:46:08;;;;;;;10.45;7.05;;;;;;;13.03;66.26;95457.38;5070504;28;20547;-76
2022/10/15 04:48:35;;;;;;;16.17;7.90;;;;;;;12.40;65.96;95362.69;5079251;28;20036;-76
2022/10/15 04:51:06;;;;;;;14.63;7.22;;;;;;;13.20;66.41;95486.22;5071104;28;20120;-76
2022/10/15 04:53:32;;;;;;;21.15;6.75;;;;;;;12.91;66.67;95445.50;5080199;28;20032;-76
2022/10/15 04:56:05;;;;;;;14.48;6.55;;;;;;;13.05;66.70;95465.84;5079296;28;20105;-76
2022/10/15 04:58:32;;;;;;;13.88;6.28;;;;;;;13.30;66.93;95501.31;5061461;28;20839;-76
2022/10/15 05:01:00;;;;;;;12.68;6.82;;;;;;;13.09;67.01;95476.75;5061158;28;20055;-76
2022/10/15 05:03:25;;;;;;;13.52;7.57;;;;;;;13.32;66.73;95509.81;5079651;28;20056;-76
2022/10/15 05:05:51;;;;;;;12.00;7.00;;;;;;;12.97;66.70;95461.13;5060988;28;20133;-77
2022/10/15 05:08:16;;;;;;;12.80;6.60;;;;;;;12.81;67.09;95426.97;5078828;28;20223;-76
2022/10/15 05:10:41;;;;;;;19.95;7.30;;;;;;;13.34;67.23;95510.34;5080106;28;20098;-78
2022/10/15 05:13:07;;;;;;;12.25;7.32;;;;;;;12.96;67.00;95448.91;5057559;28;20039;-77
2022/10/15 05:15:32;;;;;;;14.85;7.28;;;;;;;12.90;67.10;95441.25;5078248;28;20051;-76
2022/10/15 05:17:58;;;;;;;11.43;7.22;;;;;;;13.28;66.91;95506.13;5076983;28;20118;-77
2022/10/15 05:20:23;;;;;;;13.45;6.80;;;;;;;13.21;66.81;95482.50;5061979;28;20158;-77
2022/10/15 05:22:48;;;;;;;13.43;6.82;;;;;;;13.26;66.79;95495.78;5077543;28;20046;-78
2022/10/15 05:25:15;;;;;;;13.98;7.13;;;;;;;13.32;66.62;95488.53;5042200;28;20040;-77
2022/10/15 05:27:40;;;;;;;17.35;7.35;;;;;;;13.24;66.67;95494.47;5043809;28;20126;-76
2022/10/15 05:30:06;;;;;;;10.57;6.30;;;;;;;12.94;66.85;95439.63;5060817;28;20158;-76
2022/10/15 05:32:32;;;;;;;16.30;7.15;;;;;;;13.41;66.36;95508.94;5061509;28;20042;-77
2022/10/15 05:34:57;;;;;;;13.63;6.78;;;;;;;13.04;66.51;95450.97;5073546;28;20041;-77
2022/10/15 05:37:22;;;;;;;19.20;7.50;;;;;;;13.67;66.04;95537.94;5070992;28;20047;-77
2022/10/15 05:39:48;;;;;;;17.45;7.45;;;;;;;13.19;66.03;95452.72;5053911;28;20051;-76
2022/10/15 05:42:13;;;;;;;24.33;6.95;;;;;;;13.54;66.01;95510.13;5060689;28;20040;-76
2022/10/15 05:44:39;;;;;;;19.45;6.85;;;;;;;13.73;65.92;95537.59;5072972;28;20040;-77
2022/10/15 05:47:05;;;;;;;19.30;7.35;;;;;;;13.11;66.08;95440.78;5060601;28;20055;-76
2022/10/15 05:49:30;;;;;;;14.35;6.95;;;;;;;13.79;65.90;95547.16;5070860;28;20437;-76
2022/10/15 05:51:56;;;;;;;18.70;7.07;;;;;;;13.49;65.34;95496.88;5071636;28;20039;-76
2022/10/15 05:54:21;;;;;;;20.73;7.43;;;;;;;13.76;65.54;95528.25;5078503;28;20036;-76
2022/10/15 05:56:47;;;;;;;17.58;7.75;;;;;;;13.80;65.30;95532.75;5078856;28;20119;-77
2022/10/15 05:59:13;;;;;;;16.85;7.63;;;;;;;13.62;65.04;95487.38;5041636;28;20052;-76
2022/10/15 06:01:39;;;;;;;19.80;7.28;;;;;;;13.86;64.93;95525.47;5078321;28;20048;-76
2022/10/15 06:04:04;;;;;;;14.18;7.22;;;;;;;14.01;64.92;95545.81;5079216;28;20047;-76
2022/10/15 06:06:29;;;;;;;17.40;7.45;;;;;;;13.80;64.61;95492.78;5042336;28;20045;-76
2022/10/15 06:08:57;;;;;;;15.40;7.57;;;;;;;14.04;64.31;95529.25;5060296;28;20044;-76
2022/10/15 06:11:22;;;;;;;13.73;7.00;;;;;;;13.75;64.40;95481.34;5076914;28;20090;-77
2022/10/15 06:13:48;;;;;;;20.15;7.50;;;;;;;13.90;63.98;95497.16;5077495;28;20125;-77
2022/10/15 06:16:15;;;;;;;15.20;7.10;;;;;;;13.97;64.08;95526.94;5078666;28;20138;-76
2022/10/15 06:18:40;;;;;;;14.13;7.00;;;;;;;14.07;64.30;95531.34;5060232;28;20115;-76
2022/10/15 06:21:07;;;;;;;12.68;6.63;;;;;;;14.01;63.86;95527.16;5073653;28;20121;-76
2022/10/15 06:23:33;;;;;;;19.38;7.55;;;;;;;13.59;64.35;95467.41;5078581;28;20044;-76
2022/10/15 06:26:07;;;;;;;15.30;6.97;;;;;;;13.84;64.04;95496.44;5071154;28;20036;-77
2022/10/15 06:28:33;;;;;;;16.85;7.10;;;;;;;13.97;64.53;95510.13;5070650;28;20097;-76
2022/10/15 06:31:00;;;;;;;17.23;7.00;;;;;;;14.35;64.16;95566.97;5071024;28;20044;-76
2022/10/15 06:33:26;;;;;;;11.55;6.63;;;;;;;13.93;63.36;95487.81;5071090;28;20032;-76
2022/10/15 06:35:51;;;;;;;13.23;6.60;;;;;;;14.46;63.47;95569.28;5077498;28;20043;-77
2022/10/15 06:38:17;;;;;;;19.02;7.07;;;;;;;14.56;63.06;95585.16;5070009;28;20124;-76
2022/10/15 06:40:45;;;;;;;17.63;7.57;;;;;;;14.45;63.34;95561.53;5078463;28;20813;-77
2022/10/15 06:43:11;;;;;;;21.77;7.35;;;;;;;14.68;63.00;95582.03;5078990;28;20028;-77
2022/10/15 06:45:39;;;;;;;16.58;6.40;;;;;;;14.12;62.42;95489.41;5084097;28;20154;-77
2022/10/15 06:48:05;;;;;;;17.50;7.10;;;;;;;14.62;62.19;95580.53;5083916;28;20064;-77
2022/10/15 06:50:32;;;;;;;18.73;7.38;;;;;;;14.41;62.69;95563.22;5080747;28;20363;-77
2022/10/15 06:52:57;;;;;;;12.02;6.60;;;;;;;14.55;62.39;95574.75;5061394;28;20048;-77
2022/10/15 06:55:23;;;;;;;12.30;6.85;;;;;;;14.45;62.39;95558.88;5078509;28;20097;-77
2022/10/15 06:57:49;;;;;;;20.35;8.35;;;;;;;14.58;61.89;95580.31;5053440;28;20044;-77
2022/10/15 07:00:15;;;;;;;16.05;7.70;;;;;;;14.54;62.15;95579.31;5079400;28;20047;-77
2022/10/15 07:02:42;;;;;;;20.17;7.03;;;;;;;14.62;62.54;95589.34;5044529;28;20926;-77
2022/10/15 07:05:08;;;;;;;12.55;6.60;;;;;;;14.40;62.34;95557.09;5073922;28;20701;-77
2022/10/15 07:07:33;;;;;;;15.73;7.55;;;;;;;14.58;62.53;95595.53;5059368;28;20100;-77
2022/10/15 07:09:59;;;;;;;19.80;8.55;;;;;;;14.48;62.58;95595.69;5059358;28;20059;-77
2022/10/15 07:12:24;;;;;;;12.90;7.20;;;;;;;14.23;62.60;95532.75;5076986;28;20426;-77
2022/10/15 07:14:50;;;;;;;14.52;7.53;;;;;;;14.71;62.48;95592.16;5065983;28;20833;-77
2022/10/15 07:17:16;;;;;;;14.43;7.90;;;;;;;14.60;61.92;95567.47;5078051;28;20154;-77
2022/10/15 07:19:42;;;;;;;19.23;8.98;;;;;;;14.28;61.41;95516.66;5060370;28;20043;-77
2022/10/15 07:22:08;;;;;;;20.48;7.55;;;;;;;14.53;61.20;95560.91;5077653;28;20055;-77
2022/10/15 07:24:34;;;;;;;16.88;8.00;;;;;;;14.80;61.00;95600.31;5059551;28;20044;-77
2022/10/15 07:26:59;;;;;;;16.15;7.32;;;;;;;14.26;60.70;95524.19;5076700;28;20147;-77
2022/10/15 07:29:24;;;;;;;16.45;8.15;;;;;;;14.69;60.31;95580.97;5068782;28;20040;-77
2022/10/15 07:31:50;;;;;;;14.88;7.32;;;;;;;14.42;60.35;95538.13;5050376;28;20051;-77
2022/10/15 07:34:15;;;;;;;16.98;6.43;;;;;;;14.53;59.87;95560.91;5077197;28;20040;-77
2022/10/15 07:36:41;;;;;;;9.55;6.68;;;;;;;14.61;59.68;95546.91;5069771;28;20135;-76
2022/10/15 07:39:08;;;;;;;10.73;6.80;;;;;;;14.41;59.84;95532.00;5067251;28;20150;-76
2022/10/15 07:41:33;;;;;;;11.60;7.13;;;;;;;14.86;60.37;95586.59;5076173;28;20032;-76
2022/10/15 07:43:59;;;;;;;17.35;7.43;;;;;;;14.89;60.13;95591.34;5058644;28;20532;-76
2022/10/15 07:46:25;;;;;;;16.58;7.03;;;;;;;14.95;60.11;95600.09;5076956;28;20040;-76
2022/10/15 07:48:51;;;;;;;11.23;6.22;;;;;;;14.40;61.00;95581.09;5058353;28;20824;-76
2022/10/15 07:51:16;;;;;;;12.40;6.85;;;;;;;14.21;60.41;95516.22;5076834;28;20075;-76
2022/10/15 07:53:42;;;;;;;14.48;6.28;;;;;;;14.44;59.06;95534.06;5058381;28;20139;-76
2022/10/15 07:56:11;;;;;;;16.85;7.72;;;;;;;14.46;58.94;95542.59;5068672;28;20148;-76
2022/10/15 07:58:37;;;;;;;15.52;6.88;;;;;;;14.93;58.89;95600.38;5077585;28;20036;-76
2022/10/15 08:01:08;;;;;;;14.05;7.18;;;;;;;14.99;59.08;95595.72;5077492;28;20040;-76
2022/10/15 08:03:34;;;;;;;15.07;6.97;;;;;;;15.01;57.78;95598.91;5058835;28;20044;-76
2022/10/15 08:06:00;;;;;;;9.48;6.70;;;;;;;14.81;57.41;95567.16;5076488;28;20059;-76
2022/10/15 08:08:26;;;;;;;13.73;6.65;;;;;;;14.96;57.49;95570.38;5059015;28;20035;-77
2022/10/15 08:10:52;;;;;;;21.48;6.53;;;;;;;14.52;57.43;95501.41;5076864;28;20440;-77
2022/10/15 08:13:17;;;;;;;10.98;6.57;;;;;;;14.49;59.03;95542.03;5056979;28;20122;-77
2022/10/15 08:15:43;;;;;;;12.40;6.97;;;;;;;14.42;58.77;95501.53;5076923;28;20040;-77
2022/10/15 08:18:09;;;;;;;10.90;6.03;;;;;;;15.08;57.89;95580.63;5079527;28;20151;-77
2022/10/15 08:20:38;;;;;;;15.70;7.38;;;;;;;15.00;57.40;95575.97;5077222;28;20159;-77
2022/10/15 08:23:03;;;;;;;15.98;7.32;;;;;;;14.80;57.91;95542.34;5079800;28;20060;-77
2022/10/15 08:25:30;;;;;;;19.58;8.20;;;;;;;15.04;58.11;95588.44;5080369;28;20050;-77
2022/10/15 08:27:56;;;;;;;13.00;6.80;;;;;;;15.03;57.18;95584.16;5062061;28;20078;-77
2022/10/15 08:30:22;;;;;;;17.65;7.57;;;;;;;14.61;57.80;95545.03;5062475;28;20065;-76
2022/10/15 08:32:47;;;;;;;12.60;7.57;;;;;;;15.03;57.58;95586.03;5062312;28;20043;-77
2022/10/15 08:35:13;;;;;;;17.50;7.53;;;;;;;14.86;58.21;95564.44;5080264;28;20069;-77
2022/10/15 08:37:38;;;;;;;11.88;7.70;;;;;;;14.90;57.97;95590.25;5061416;28;20429;-77
2022/10/15 08:40:05;;;;;;;11.35;6.80;;;;;;;14.88;57.51;95556.91;5062164;28;20032;-77
2022/10/15 08:42:36;;;;;;;13.32;7.57;;;;;;;15.07;56.98;95581.72;5079980;28;20051;-77
2022/10/15 08:45:11;;;;;;;14.40;7.10;;;;;;;14.79;56.41;95530.09;5078148;28;20047;-77
2022/10/15 08:48:20;;;;;;;17.90;7.88;;;;;;;15.06;56.22;95574.78;5061635;28;20096;-77
2022/10/15 08:51:04;;;;;;;18.52;7.70;;;;;;;14.86;56.31;95527.84;4991484;28;20095;-77
2022/10/15 08:53:36;;;;;;;13.52;8.02;;;;;;;15.09;56.27;95552.06;5074928;28;20040;-77
2022/10/15 08:56:04;;;;;;;12.27;7.28;;;;;;;14.49;56.27;95461.97;5079314;28;20873;-77
2022/10/15 08:58:47;;;;;;;11.77;6.70;;;;;;;15.28;56.23;95580.28;5061600;28;20472;-77
2022/10/15 09:01:42;;;;;;;13.10;6.30;;;;;;;15.22;57.02;95570.00;5080549;28;20391;-77
2022/10/15 09:04:18;;;;;;;12.75;6.55;;;;;;;15.20;56.82;95577.50;5078303;28;20040;-77
2022/10/15 09:06:45;;;;;;;9.52;5.65;;;;;;;15.00;55.59;95523.34;5078048;28;20140;-77
2022/10/15 09:09:21;;;;;;;14.02;5.88;;;;;;;15.43;54.72;95571.22;5079962;28;20040;-77
2022/10/15 09:11:56;;;;;;;13.23;5.82;;;;;;;15.44;55.51;95578.94;5078565;28;20824;-77
2022/10/15 09:14:27;;;;;;;8.02;5.32;;;;;;;14.80;54.87;95504.97;5079758;28;20124;-77
2022/10/15 09:16:53;;;;;;;9.10;5.90;;;;;;;14.85;54.68;95475.53;5070431;28;20589;-77
2022/10/15 09:19:20;;;;;;;9.20;6.05;;;;;;;15.47;54.43;95577.59;5066620;28;20151;-77
2022/10/15 09:21:48;;;;;;;11.02;6.25;;;;;;;15.14;54.58;95501.19;5079092;28;20051;-77
2022/10/15 09:24:20;;;;;;;9.40;5.95;;;;;;;15.36;53.39;95523.50;5079029;28;20075;-77
2022/10/15 09:27:10;;;;;;;12.68;6.03;;;;;;;15.66;54.12;95569.50;5060737;28;20196;-77
2022/10/15 09:29:58;;;;;;;10.45;6.95;;;;;;;15.81;54.05;95564.66;5077061;28;20070;-76
2022/10/15 09:32:50;;;;;;;15.35;6.90;;;;;;;15.66;53.97;95524.06;5079098;28;20063;-77
2022/10/15 09:35:33;;;;;;;11.07;6.13;;;;;;;15.72;53.77;95518.31;5079109;28;20046;-77
2022/10/15 09:38:13;;;;;;;11.25;6.30;;;;;;;16.09;52.06;95562.81;5078917;28;20097;-77
2022/10/15 09:40:48;;;;;;;9.13;5.78;;;;;;;16.21;50.92;95560.41;5078269;28;20043;-77
2022/10/15 09:43:30;;;;;;;9.20;5.50;;;;;;;15.64;50.29;95470.88;5078288;28;20047;-77
2022/10/15 09:45:56;;;;;;;10.50;6.07;;;;;;;16.28;50.94;95556.53;5060239;28;20040;-77
2022/10/15 09:48:24;;;;;;;12.13;5.78;;;;;;;15.85;51.88;95465.13;5059866;28;20040;-77
2022/10/15 09:51:03;;;;;;;11.55;5.70;;;;;;;16.92;49.73;95517.88;5079105;28;20127;-77
2022/10/15 09:53:37;;;;;;;10.30;5.13;;;;;;;18.51;46.92;95557.06;5059903;28;20051;-77
2022/10/15 09:56:08;;;;;;;8.05;5.07;;;;;;;19.36;43.19;95468.66;5077186;28;20433;-77
2022/10/15 09:58:47;;;;;;;8.88;5.50;;;;;;;21.07;40.43;95547.66;5076287;28;20117;-77
2022/10/15 10:01:24;;;;;;;6.35;4.70;;;;;;;22.23;38.81;95552.00;5078338;28;20042;-77
2022/10/15 10:03:53;;;;;;;14.80;5.60;;;;;;;22.94;36.43;95540.66;5077864;28;20531;-77
2022/10/15 10:06:21;;;;;;;10.18;4.82;;;;;;;24.03;34.99;95556.34;5059593;28;20044;-77
2022/10/15 10:08:58;;;;;;;8.82;4.43;;;;;;;24.99;32.98;95556.66;5077746;28;20051;-78
2022/10/15 10:11:26;;;;;;;11.23;4.93;;;;;;;25.58;31.66;95538.41;5076436;28;20063;-78
2022/10/15 10:13:59;;;;;;;6.63;4.60;;;;;;;26.18;30.40;95511.50;5059809;28;20036;-77
2022/10/15 10:16:28;;;;;;;9.82;4.22;;;;;;;26.88;28.73;95556.06;5058351;28;20127;-78
2022/10/15 10:19:12;;;;;;;8.88;4.50;;;;;;;26.92;29.00;95549.94;5059116;28;20051;-78
2022/10/15 10:21:40;;;;;;;5.38;4.05;;;;;;;26.99;28.90;95542.66;5078434;28;20052;-77
2022/10/15 10:24:30;;;;;;;7.32;4.22;;;;;;;27.05;28.16;95505.78;5059400;28;20133;-78
2022/10/15 10:27:01;;;;;;;9.65;4.22;;;;;;;26.61;28.64;95497.41;5060260;28;20087;-77
2022/10/15 10:29:27;;;;;;;5.97;4.20;;;;;;;26.93;28.30;95464.44;5077899;28;20046;-77
2022/10/15 10:31:53;;;;;;;8.10;4.10;;;;;;;27.60;27.15;95539.50;5079076;28;20052;-77
2022/10/15 10:34:28;;;;;;;5.90;3.55;;;;;;;27.08;27.47;95471.59;5058732;28;20035;-78
2022/10/15 10:36:54;;;;;;;7.82;4.05;;;;;;;27.29;27.53;95526.28;5060624;28;20048;-77
2022/10/15 10:39:29;;;;;;;6.47;3.58;;;;;;;27.54;26.67;95524.63;5059323;28;20498;-77
2022/10/15 10:42:21;;;;;;;8.88;4.55;;;;;;;27.62;26.32;95530.94;5058523;28;20131;-77
2022/10/15 10:44:47;;;;;;;6.35;4.18;;;;;;;27.51;26.70;95491.88;5058874;28;20705;-78
2022/10/15 10:47:17;;;;;;;7.25;3.97;;;;;;;27.88;25.83;95524.56;5077119;28;20047;-77
2022/10/15 10:49:45;;;;;;;7.90;4.28;;;;;;;27.68;27.06;95534.13;5077416;28;20050;-77
2022/10/15 10:52:27;;;;;;;10.02;4.28;;;;;;;27.30;27.37;95527.06;5074789;28;20576;-77
2022/10/15 10:55:15;;;;;;;8.30;4.18;;;;;;;26.60;26.82;95490.41;5058879;28;20044;-78
2022/10/15 10:57:46;;;;;;;9.60;4.13;;;;;;;26.49;27.39;95478.59;5077024;28;20559;-77
2022/10/15 11:00:17;;;;;;;14.43;4.43;;;;;;;25.68;27.39;95400.13;5073823;28;20097;-77
2022/10/15 11:02:42;;;;;;;;;;;;;;;26.48;27.71;95526.75;5059125;28;20046;-77
2022/10/15 11:05:10;;;;;;;5.75;3.85;;;;;;;26.48;27.86;95520.53;5076861;28;19920;-77
2022/10/15 11:08:01;;;;;;;6.60;2.75;;;;;;;26.08;28.35;95527.28;5077121;28;20123;-77
2022/10/15 11:10:39;;;;;;;8.43;3.63;;;;;;;25.35;28.50;95438.72;5077102;28;20124;-78
2022/10/15 11:14:00;;;;;;;6.38;3.30;;;;;;;25.27;29.29;95531.22;5062944;28;20120;-77
2022/10/15 11:16:44;;;;;;;8.90;3.65;;;;;;;24.61;29.87;95524.81;5000388;28;20050;-77
2022/10/15 11:19:28;;;;;;;6.38;3.17;;;;;;;24.12;30.79;95520.94;5077001;28;20048;-77
2022/10/15 11:22:11;;;;;;;6.47;3.53;;;;;;;23.84;31.73;95515.63;5077406;28;20074;-77
2022/10/15 11:24:48;;;;;;;5.15;3.03;;;;;;;23.07;32.20;95488.88;5061796;28;20052;-77
2022/10/15 11:27:44;;;;;;;11.57;3.40;;;;;;;23.11;32.44;95526.84;5059223;28;20925;-77
2022/10/15 11:30:28;;;;;;;6.43;3.03;;;;;;;22.79;32.91;95506.22;5077132;28;20052;-77
2022/10/15 11:33:18;;;;;;;8.32;3.10;;;;;;;22.70;33.65;95517.94;5076143;28;20736;-77
2022/10/15 11:35:56;;;;;;;10.73;3.35;;;;;;;22.38;33.44;95502.69;5077743;28;20055;-77
2022/10/15 11:38:59;;;;;;;10.68;3.60;;;;;;;22.28;33.94;95516.63;5058417;28;20553;-77
2022/10/15 11:42:08;;;;;;;4.85;2.85;;;;;;;21.60;34.54;95491.28;5076787;28;20203;-77
2022/10/15 11:45:11;;;;;;;8.73;3.13;;;;;;;21.52;35.41;95517.25;5047726;28;20063;-77